createdAt,value
2023-04-09T00:00:41.520Z,102771.38
2023-04-09T00:03:08.257Z,102766.19
2023-04-09T00:05:39.797Z,102764.53
2023-04-09T00:08:07.279Z,102770.59
2023-04-09T00:10:33.749Z,102772.34
2023-04-09T00:13:00.218Z,102773.22
2023-04-09T00:15:31.327Z,102767.16
2023-04-09T00:17:58.284Z,102772.34
2023-04-09T00:20:24.789Z,102770.66
2023-04-09T00:22:52.305Z,102766.41
2023-04-09T00:25:19.883Z,102762.97
2023-04-09T00:27:46.600Z,102765.63
2023-04-09T00:30:13.053Z,102766.47
2023-04-09T00:32:39.513Z,102760.38
2023-04-09T00:35:06.621Z,102757.75
2023-04-09T00:37:33.087Z,102760.38
2023-04-09T00:39:59.542Z,102756.06
2023-04-09T00:42:26.543Z,102753.47
2023-04-09T00:44:52.992Z,102750.00
2023-04-09T00:47:19.675Z,102756.06
2023-04-09T00:49:46.267Z,102749.16
2023-04-09T00:52:12.768Z,102744.00
2023-04-09T00:54:39.291Z,102740.50
2023-04-09T00:57:06.066Z,102748.31
2023-04-09T00:59:32.733Z,102744.88
2023-04-09T01:01:59.244Z,102753.56
2023-04-09T01:04:25.830Z,102737.97
2023-04-09T01:06:55.821Z,102739.72
2023-04-09T01:09:28.601Z,102738.03
2023-04-09T01:12:45.644Z,102738.88
2023-04-09T01:15:18.255Z,102738.91
2023-04-09T01:18:10.193Z,102737.19
2023-04-09T01:20:40.698Z,102732.88
2023-04-09T01:23:10.347Z,102741.53
2023-04-09T01:25:57.942Z,102732.03
2023-04-09T01:28:32.158Z,102736.38
2023-04-09T01:31:09.370Z,102730.31
2023-04-09T01:33:38.072Z,102730.31
2023-04-09T01:36:06.255Z,102734.63
2023-04-09T01:38:35.291Z,102732.03
2023-04-09T01:41:03.821Z,102725.97
2023-04-09T01:43:31.965Z,102716.47
2023-04-09T01:46:01.342Z,102721.69
2023-04-09T01:48:30.275Z,102716.47
2023-04-09T01:50:58.494Z,102714.75
2023-04-09T01:53:28.322Z,102721.72
2023-04-09T01:55:56.792Z,102711.31
2023-04-09T01:58:24.949Z,102719.91
2023-04-09T02:01:00.034Z,102715.63
2023-04-09T02:03:34.082Z,102716.53
2023-04-09T02:06:09.951Z,102713.03
2023-04-09T02:08:37.599Z,102718.22
2023-04-09T02:11:06.744Z,102713.06
2023-04-09T02:13:34.931Z,102712.22
2023-04-09T02:16:02.055Z,102711.38
2023-04-09T02:18:30.428Z,102715.75
2023-04-09T02:20:58.593Z,102707.97
2023-04-09T02:23:25.883Z,102707.09
2023-04-09T02:25:53.702Z,102707.09
2023-04-09T02:28:20.224Z,102695.81
2023-04-09T02:30:46.794Z,102694.97
2023-04-09T02:33:13.299Z,102694.97
2023-04-09T02:35:39.890Z,102693.22
2023-04-09T02:38:08.069Z,102694.97
2023-04-09T02:40:34.492Z,102691.53
2023-04-09T02:43:00.972Z,102692.38
2023-04-09T02:45:27.413Z,102697.63
2023-04-09T02:47:53.866Z,102692.44
2023-04-09T02:50:20.469Z,102682.88
2023-04-09T02:52:47.592Z,102682.88
2023-04-09T02:55:14.792Z,102681.16
2023-04-09T02:57:41.566Z,102686.31
2023-04-09T03:00:08.800Z,102682.03
2023-04-09T03:02:35.362Z,102685.47
2023-04-09T03:05:02.825Z,102688.03
2023-04-09T03:07:29.253Z,102684.56
2023-04-09T03:09:55.762Z,102677.69
2023-04-09T03:12:22.266Z,102682.88
2023-04-09T03:14:48.717Z,102677.72
2023-04-09T03:17:15.358Z,102680.31
2023-04-09T03:19:41.776Z,102687.28
2023-04-09T03:22:08.191Z,102686.44
2023-04-09T03:24:34.704Z,102686.44
2023-04-09T03:27:01.493Z,102677.78
2023-04-09T03:29:27.932Z,102672.63
2023-04-09T03:31:54.365Z,102667.44
2023-04-09T03:34:21.019Z,102670.09
2023-04-09T03:36:47.511Z,102668.34
2023-04-09T03:39:13.918Z,102669.19
2023-04-09T03:41:40.583Z,102660.53
2023-04-09T03:44:07.061Z,102659.69
2023-04-09T03:46:33.489Z,102661.38
2023-04-09T03:48:59.971Z,102664.84
2023-04-09T03:51:27.209Z,102657.03
2023-04-09T03:53:53.626Z,102663.13
2023-04-09T03:56:20.050Z,102659.69
2023-04-09T03:58:48.427Z,102658.00
2023-04-09T04:01:15.123Z,102657.16
2023-04-09T04:03:41.831Z,102651.09
2023-04-09T04:06:08.324Z,102651.94
2023-04-09T04:08:34.736Z,102662.34
2023-04-09T04:11:05.206Z,102654.56
2023-04-09T04:13:31.952Z,102657.19
2023-04-09T04:15:58.521Z,102657.16
2023-04-09T04:18:24.991Z,102655.44
2023-04-09T04:20:51.632Z,102652.00
2023-04-09T04:23:18.166Z,102656.34
2023-04-09T04:25:44.644Z,102651.16
2023-04-09T04:28:11.084Z,102651.22
2023-04-09T04:30:37.566Z,102649.53
2023-04-09T04:33:04.049Z,102654.72
2023-04-09T04:35:30.616Z,102644.31
2023-04-09T04:37:57.050Z,102645.16
2023-04-09T04:40:23.716Z,102656.47
2023-04-09T04:42:50.226Z,102662.53
2023-04-09T04:45:16.704Z,102659.06
2023-04-09T04:47:43.219Z,102655.63
2023-04-09T04:50:10.004Z,102644.38
2023-04-09T04:52:36.916Z,102649.56
2023-04-09T04:55:06.845Z,102651.34
2023-04-09T04:57:33.282Z,102657.44
2023-04-09T04:59:59.715Z,102641.81
2023-04-09T05:02:26.288Z,102652.22
2023-04-09T05:04:52.806Z,102651.38
2023-04-09T05:07:19.242Z,102641.00
2023-04-09T05:09:45.795Z,102647.94
2023-04-09T05:12:12.349Z,102641.03
2023-04-09T05:14:38.804Z,102641.88
2023-04-09T05:17:05.303Z,102639.31
2023-04-09T05:19:31.836Z,102643.59
2023-04-09T05:21:58.295Z,102646.16
2023-04-09T05:24:24.775Z,102643.59
2023-04-09T05:26:51.281Z,102647.09
2023-04-09T05:29:17.783Z,102646.25
2023-04-09T05:31:44.277Z,102654.03
2023-04-09T05:34:11.303Z,102650.53
2023-04-09T05:36:37.780Z,102660.91
2023-04-09T05:39:04.220Z,102656.53
2023-04-09T05:41:30.681Z,102659.16
2023-04-09T05:43:58.812Z,102655.69
2023-04-09T05:46:27.339Z,102659.25
2023-04-09T05:48:53.972Z,102660.09
2023-04-09T05:51:20.670Z,102656.63
2023-04-09T05:53:47.056Z,102665.28
2023-04-09T05:56:15.748Z,102672.19
2023-04-09T05:58:43.037Z,102663.53
2023-04-09T06:01:10.362Z,102664.44
2023-04-09T06:03:37.129Z,102665.31
2023-04-09T06:06:03.795Z,102661.00
2023-04-09T06:08:30.315Z,102666.19
2023-04-09T06:10:56.756Z,102667.03
2023-04-09T06:13:23.164Z,102667.00
2023-04-09T06:15:49.711Z,102661.78
2023-04-09T06:18:16.308Z,102660.03
2023-04-09T06:20:42.728Z,102666.88
2023-04-09T06:23:09.243Z,102663.38
2023-04-09T06:25:36.656Z,102668.56
2023-04-09T06:28:03.226Z,102665.91
2023-04-09T06:30:30.982Z,102662.41
2023-04-09T06:32:57.704Z,102671.97
2023-04-09T06:35:24.332Z,102676.22
2023-04-09T06:37:50.932Z,102668.41
2023-04-09T06:40:17.571Z,102681.38
2023-04-09T06:42:44.015Z,102680.44
2023-04-09T06:45:10.618Z,102687.31
2023-04-09T06:47:37.217Z,102678.53
2023-04-09T06:50:04.223Z,102680.22
2023-04-09T06:52:30.845Z,102685.34
2023-04-09T06:54:57.313Z,102685.19
2023-04-09T06:57:23.763Z,102687.72
2023-04-09T06:59:50.318Z,102686.03
2023-04-09T07:02:16.978Z,102686.94
2023-04-09T07:04:43.934Z,102686.06
2023-04-09T07:07:10.615Z,102690.28
2023-04-09T07:09:37.080Z,102686.75
2023-04-09T07:12:03.573Z,102690.19
2023-04-09T07:14:30.148Z,102690.13
2023-04-09T07:16:56.622Z,102688.25
2023-04-09T07:19:23.062Z,102688.97
2023-04-09T07:21:49.485Z,102690.47
2023-04-09T07:24:15.899Z,102694.72
2023-04-09T07:26:42.746Z,102699.84
2023-04-09T07:29:09.276Z,102697.91
2023-04-09T07:31:36.215Z,102691.66
2023-04-09T07:34:02.743Z,102694.16
2023-04-09T07:36:29.423Z,102692.25
2023-04-09T07:38:56.142Z,102698.94
2023-04-09T07:41:22.721Z,102693.47
2023-04-09T07:43:49.184Z,102696.75
2023-04-09T07:46:20.751Z,102687.94
2023-04-09T07:48:48.424Z,102683.44
2023-04-09T07:51:15.331Z,102683.22
2023-04-09T07:53:41.795Z,102688.13
2023-04-09T07:56:08.262Z,102688.03
2023-04-09T07:58:34.875Z,102687.91
2023-04-09T08:01:01.501Z,102686.91
2023-04-09T08:03:28.203Z,102686.84
2023-04-09T08:05:55.082Z,102686.72
2023-04-09T08:08:21.809Z,102683.28
2023-04-09T08:10:48.333Z,102686.66
2023-04-09T08:13:14.880Z,102670.69
2023-04-09T08:15:41.579Z,102677.28
2023-04-09T08:18:08.296Z,102682.16
2023-04-09T08:20:34.916Z,102683.59
2023-04-09T08:23:01.854Z,102683.50
2023-04-09T08:25:28.704Z,102686.19
2023-04-09T08:27:55.167Z,102684.59
2023-04-09T08:32:48.533Z,102682.84
2023-04-09T08:35:15.934Z,102684.53
2023-04-09T08:37:43.672Z,102689.66
2023-04-09T08:40:12.141Z,102691.41
2023-04-09T08:42:47.512Z,102687.59
2023-04-09T08:45:14.054Z,102685.25
2023-04-09T08:47:44.359Z,102678.41
2023-04-09T08:50:11.230Z,102679.44
2023-04-09T08:52:38.331Z,102684.69
2023-04-09T08:55:05.296Z,102686.19
2023-04-09T08:57:39.767Z,102674.88
2023-04-09T09:00:07.187Z,102682.06
2023-04-09T09:02:33.749Z,102676.16
2023-04-09T09:05:01.070Z,102670.09
2023-04-09T09:07:31.301Z,102670.41
2023-04-09T09:10:05.929Z,102665.63
2023-04-09T09:12:36.547Z,102660.31
2023-04-09T09:15:04.604Z,102661.69
2023-04-09T09:17:31.282Z,102659.09
2023-04-09T09:19:58.737Z,102660.09
2023-04-09T09:22:25.912Z,102659.97
2023-04-09T09:24:53.579Z,102659.41
2023-04-09T09:27:39.192Z,102662.22
2023-04-09T09:30:07.202Z,102653.53
2023-04-09T09:32:34.151Z,102655.94
2023-04-09T09:35:06.242Z,102647.88
2023-04-09T09:37:34.189Z,102649.19
2023-04-09T09:40:01.272Z,102638.78
2023-04-09T09:42:27.787Z,102646.84
2023-04-09T09:44:55.427Z,102639.22
2023-04-09T09:47:23.211Z,102641.84
2023-04-09T09:49:50.352Z,102641.44
2023-04-09T09:52:24.736Z,102652.19
2023-04-09T09:54:54.842Z,102642.09
2023-04-09T09:57:25.096Z,102626.84
2023-04-09T09:59:55.501Z,102633.31
2023-04-09T10:02:30.856Z,102635.81
2023-04-09T10:05:01.342Z,102630.31
2023-04-09T10:07:28.778Z,102633.75
2023-04-09T10:09:57.680Z,102631.91
2023-04-09T10:12:25.408Z,102623.88
2023-04-09T10:15:04.487Z,102619.44
2023-04-09T10:17:32.485Z,102618.31
2023-04-09T10:20:11.685Z,102617.94
2023-04-09T10:22:39.285Z,102609.56
2023-04-09T10:25:06.621Z,102610.34
2023-04-09T10:27:33.192Z,102600.84
2023-04-09T10:30:02.730Z,102597.47
2023-04-09T10:32:36.147Z,102595.78
2023-04-09T10:35:04.157Z,102584.94
2023-04-09T10:37:31.810Z,102588.66
2023-04-09T10:39:58.741Z,102578.84
2023-04-09T10:42:41.021Z,102578.47
2023-04-09T10:45:12.372Z,102578.03
2023-04-09T10:47:40.706Z,102586.38
2023-04-09T10:50:28.103Z,102571.28
2023-04-09T10:52:57.374Z,102567.34
2023-04-09T10:55:33.310Z,102561.38
2023-04-09T10:57:59.889Z,102567.50
2023-04-09T11:00:26.395Z,102573.38
2023-04-09T11:03:22.555Z,102562.06
2023-04-09T11:05:55.445Z,102555.94
2023-04-09T11:08:22.582Z,102556.34
2023-04-09T11:10:51.902Z,102551.53
2023-04-09T11:13:20.942Z,102551.28
2023-04-09T11:15:47.741Z,102547.59
2023-04-09T11:18:25.566Z,102555.09
2023-04-09T11:21:00.394Z,102551.78
2023-04-09T11:23:27.892Z,102539.56
2023-04-09T11:25:55.400Z,102538.34
2023-04-09T11:28:23.038Z,102535.13
2023-04-09T11:30:52.894Z,102541.56
2023-04-09T11:33:20.420Z,102530.00
2023-04-09T11:35:47.209Z,102535.91
2023-04-09T11:38:13.954Z,102539.38
2023-04-09T11:40:47.837Z,102526.75
2023-04-09T11:43:18.851Z,102523.59
2023-04-09T11:45:48.252Z,102523.47
2023-04-09T11:48:15.960Z,102535.66
2023-04-09T11:50:42.849Z,102528.06
2023-04-09T11:53:37.262Z,102539.22
2023-04-09T11:56:04.180Z,102537.41
2023-04-09T11:58:30.668Z,102534.13
2023-04-09T12:01:00.430Z,102520.34
2023-04-09T12:03:34.286Z,102520.69
2023-04-09T12:06:02.735Z,102526.94
2023-04-09T12:08:29.412Z,102522.38
2023-04-09T12:10:56.020Z,102522.06
2023-04-09T12:13:32.629Z,102520.03
2023-04-09T12:16:01.141Z,102508.28
2023-04-09T12:18:27.633Z,102514.34
2023-04-09T12:20:54.430Z,102509.38
2023-04-09T12:23:20.929Z,102514.19
2023-04-09T12:25:48.033Z,102511.00
2023-04-09T12:28:18.004Z,102508.81
2023-04-09T12:30:45.404Z,102503.47
2023-04-09T12:33:12.114Z,102500.13
2023-04-09T12:35:39.026Z,102509.09
2023-04-09T12:38:06.138Z,102513.69
2023-04-09T12:40:32.742Z,102512.59
2023-04-09T12:42:59.270Z,102508.16
2023-04-09T12:45:25.888Z,102504.13
2023-04-09T12:47:52.870Z,102498.97
2023-04-09T12:50:19.547Z,102491.59
2023-04-09T12:52:46.300Z,102490.69
2023-04-09T12:55:14.200Z,102503.97
2023-04-09T12:57:44.470Z,102497.00
2023-04-09T13:00:11.850Z,102504.81
2023-04-09T13:02:38.615Z,102500.06
2023-04-09T13:05:05.591Z,102497.25
2023-04-09T13:07:32.131Z,102505.16
2023-04-09T13:09:59.007Z,102494.19
2023-04-09T13:12:25.748Z,102493.13
2023-04-09T13:14:54.251Z,102491.81
2023-04-09T13:17:20.991Z,102492.59
2023-04-09T13:19:47.650Z,102487.34
2023-04-09T13:22:14.562Z,102488.84
2023-04-09T13:24:41.125Z,102493.25
2023-04-09T13:27:09.662Z,102487.91
2023-04-09T13:29:36.688Z,102490.44
2023-04-09T13:32:07.097Z,102492.84
2023-04-09T13:34:35.145Z,102496.03
2023-04-09T13:37:04.964Z,102484.94
2023-04-09T13:39:31.437Z,102485.16
2023-04-09T13:41:57.952Z,102484.22
2023-04-09T13:44:25.668Z,102486.13
2023-04-09T13:46:52.415Z,102472.94
2023-04-09T13:49:18.915Z,102482.19
2023-04-09T13:51:45.683Z,102471.81
2023-04-09T13:54:12.544Z,102472.09
2023-04-09T13:56:39.435Z,102455.34
2023-04-09T13:59:06.383Z,102444.53
2023-04-09T14:01:34.540Z,102450.91
2023-04-09T14:04:01.440Z,102450.31
2023-04-09T14:06:28.054Z,102455.69
2023-04-09T14:08:55.839Z,102448.28
2023-04-09T14:11:22.508Z,102453.66
2023-04-09T14:13:49.004Z,102453.16
2023-04-09T14:16:15.664Z,102452.72
2023-04-09T14:18:42.174Z,102449.16
2023-04-09T14:21:10.163Z,102445.50
2023-04-09T14:23:37.189Z,102440.84
2023-04-09T14:26:04.460Z,102439.78
2023-04-09T14:28:32.123Z,102438.00
2023-04-09T14:30:59.748Z,102436.41
2023-04-09T14:33:27.042Z,102433.28
2023-04-09T14:35:53.641Z,102432.13
2023-04-09T14:38:20.430Z,102432.84
2023-04-09T14:40:46.890Z,102431.19
2023-04-09T14:43:13.457Z,102428.53
2023-04-09T14:45:40.475Z,102424.88
2023-04-09T14:48:07.040Z,102419.44
2023-04-09T14:50:34.008Z,102416.06
2023-04-09T14:53:01.156Z,102416.34
2023-04-09T14:55:28.330Z,102413.91
2023-04-09T14:57:54.936Z,102415.22
2023-04-09T15:00:22.596Z,102413.88
2023-04-09T15:02:49.273Z,102405.66
2023-04-09T15:05:16.089Z,102394.28
2023-04-09T15:07:43.688Z,102394.03
2023-04-09T15:10:10.998Z,102389.50
2023-04-09T15:12:37.605Z,102381.97
2023-04-09T15:15:08.298Z,102371.41
2023-04-09T15:17:35.266Z,102370.84
2023-04-09T15:20:02.041Z,102369.72
2023-04-09T15:22:28.526Z,102367.75
2023-04-09T15:24:55.076Z,102369.38
2023-04-09T15:27:21.501Z,102376.50
2023-04-09T15:29:47.934Z,102366.06
2023-04-09T15:32:14.362Z,102362.97
2023-04-09T15:34:41.282Z,102360.56
2023-04-09T15:37:07.766Z,102360.50
2023-04-09T15:39:35.093Z,102361.06
2023-04-09T15:42:02.003Z,102364.47
2023-04-09T15:44:28.510Z,102370.94
2023-04-09T15:46:54.993Z,102357.94
2023-04-09T15:49:22.027Z,102357.44
2023-04-09T15:51:48.714Z,102355.69
2023-04-09T15:54:15.568Z,102360.56
2023-04-09T15:56:42.206Z,102353.63
2023-04-09T15:59:08.954Z,102353.13
2023-04-09T16:01:36.654Z,102357.56
2023-04-09T16:04:04.886Z,102361.34
2023-04-09T16:06:31.648Z,102359.47
2023-04-09T16:08:58.104Z,102352.66
2023-04-09T16:11:24.852Z,102346.06
2023-04-09T16:13:51.380Z,102348.41
2023-04-09T16:16:18.021Z,102347.31
2023-04-09T16:18:44.582Z,102351.94
2023-04-09T16:21:11.253Z,102348.16
2023-04-09T16:23:38.506Z,102353.44
2023-04-09T16:26:05.579Z,102349.00
2023-04-09T16:28:32.086Z,102343.91
2023-04-09T16:30:59.455Z,102341.66
2023-04-09T16:33:26.244Z,102342.03
2023-04-09T16:35:52.874Z,102342.47
2023-04-09T16:38:19.389Z,102340.78
2023-04-09T16:40:45.993Z,102346.22
2023-04-09T16:43:12.536Z,102351.16
2023-04-09T16:45:39.034Z,102352.13
2023-04-09T16:48:10.801Z,102352.31
2023-04-09T16:50:38.410Z,102348.84
2023-04-09T16:53:04.914Z,102342.13
2023-04-09T16:55:31.441Z,102349.59
2023-04-09T16:57:58.872Z,102359.00
2023-04-09T17:00:25.599Z,102347.19
2023-04-09T17:02:52.421Z,102334.81
2023-04-09T17:05:19.125Z,102335.75
2023-04-09T17:07:45.586Z,102338.22
2023-04-09T17:10:12.179Z,102339.50
2023-04-09T17:12:38.915Z,102342.69
2023-04-09T17:15:05.819Z,102326.56
2023-04-09T17:17:33.385Z,102322.94
2023-04-09T17:20:01.591Z,102320.66
2023-04-09T17:22:28.253Z,102325.16
2023-04-09T17:24:54.765Z,102333.38
2023-04-09T17:27:21.218Z,102337.78
2023-04-09T17:29:47.690Z,102332.50
2023-04-09T17:32:14.108Z,102333.84
2023-04-09T17:34:40.786Z,102337.03
2023-04-09T17:37:07.283Z,102338.31
2023-04-09T17:39:33.762Z,102334.22
2023-04-09T17:42:00.814Z,102339.28
2023-04-09T17:44:27.313Z,102335.09
2023-04-09T17:46:53.998Z,102338.13
2023-04-09T17:49:22.413Z,102336.66
2023-04-09T17:51:48.999Z,102342.25
2023-04-09T17:54:15.598Z,102344.38
2023-04-09T17:56:42.005Z,102337.75
2023-04-09T17:59:08.526Z,102338.13
2023-04-09T18:01:35.168Z,102338.56
2023-04-09T18:04:02.099Z,102344.34
2023-04-09T18:06:29.263Z,102349.88
2023-04-09T18:08:55.743Z,102344.00
2023-04-09T18:11:23.692Z,102338.97
2023-04-09T18:13:53.109Z,102334.13
2023-04-09T18:16:20.913Z,102337.81
2023-04-09T18:18:47.528Z,102335.44
2023-04-09T18:21:15.202Z,102343.50
2023-04-09T18:23:42.032Z,102346.34
2023-04-09T18:26:08.526Z,102351.88
2023-04-09T18:28:35.665Z,102345.16
2023-04-09T18:31:02.312Z,102343.72
2023-04-09T18:33:28.880Z,102337.91
2023-04-09T18:35:55.344Z,102342.56
2023-04-09T18:38:21.867Z,102336.75
2023-04-09T18:40:48.343Z,102344.94
2023-04-09T18:43:14.765Z,102344.34
2023-04-09T18:45:42.558Z,102349.00
2023-04-09T18:48:09.120Z,102345.72
2023-04-09T18:50:35.747Z,102345.09
2023-04-09T18:53:03.632Z,102343.56
2023-04-09T18:55:30.731Z,102341.31
2023-04-09T18:57:57.472Z,102352.88
2023-04-09T19:00:24.181Z,102347.06
2023-04-09T19:02:50.942Z,102335.91
2023-04-09T19:05:17.767Z,102342.19
2023-04-09T19:07:44.210Z,102344.19
2023-04-09T19:10:10.845Z,102354.78
2023-04-09T19:12:37.881Z,102357.53
2023-04-09T19:15:04.916Z,102357.81
2023-04-09T19:17:32.222Z,102360.66
2023-04-09T19:19:58.707Z,102357.34
2023-04-09T19:22:25.136Z,102351.41
2023-04-09T19:24:51.718Z,102354.25
2023-04-09T19:27:18.663Z,102344.09
2023-04-09T19:29:46.581Z,102339.03
2023-04-09T19:32:13.370Z,102337.44
2023-04-09T19:34:39.842Z,102342.06
2023-04-09T19:37:06.305Z,102342.19
2023-04-09T19:39:32.735Z,102339.69
2023-04-09T19:41:59.242Z,102338.97
2023-04-09T19:44:26.203Z,102347.84
2023-04-09T19:46:52.755Z,102340.19
2023-04-09T19:49:19.280Z,102342.13
2023-04-09T19:51:45.758Z,102341.41
2023-04-09T19:54:12.208Z,102347.78
2023-04-09T19:56:38.635Z,102347.03
2023-04-09T19:59:05.075Z,102342.88
2023-04-09T20:01:31.744Z,102345.69
2023-04-09T20:03:58.534Z,102332.84
2023-04-09T20:06:26.036Z,102336.50
2023-04-09T20:08:54.186Z,102329.66
2023-04-09T20:11:20.942Z,102319.28
2023-04-09T20:13:48.069Z,102321.16
2023-04-09T20:16:15.276Z,102315.97
2023-04-09T20:18:41.795Z,102309.13
2023-04-09T20:21:08.668Z,102313.53
2023-04-09T20:23:35.282Z,102312.81
2023-04-09T20:26:02.650Z,102326.81
2023-04-09T20:28:29.697Z,102319.16
2023-04-09T20:30:56.638Z,102325.41
2023-04-09T20:33:23.176Z,102322.81
2023-04-09T20:35:50.425Z,102315.88
2023-04-09T20:38:20.470Z,102319.53
2023-04-09T20:40:47.171Z,102316.19
2023-04-09T20:43:13.818Z,102315.47
2023-04-09T20:45:40.657Z,102309.50
2023-04-09T20:48:07.251Z,102311.38
2023-04-09T20:50:33.999Z,102307.13
2023-04-09T20:53:00.474Z,102315.13
2023-04-09T20:55:26.973Z,102303.03
2023-04-09T20:57:55.521Z,102304.03
2023-04-09T21:00:22.363Z,102306.69
2023-04-09T21:02:48.903Z,102309.38
2023-04-09T21:05:22.571Z,102309.47
2023-04-09T21:07:53.881Z,102303.53
2023-04-09T21:10:20.466Z,102307.16
2023-04-09T21:12:47.016Z,102313.41
2023-04-09T21:15:13.590Z,102317.03
2023-04-09T21:17:40.189Z,102317.97
2023-04-09T21:20:07.126Z,102318.91
2023-04-09T21:22:34.585Z,102312.13
2023-04-09T21:25:03.026Z,102314.81
2023-04-09T21:27:29.735Z,102306.34
2023-04-09T21:29:56.256Z,102307.41
2023-04-09T21:32:22.756Z,102306.72
2023-04-09T21:34:49.238Z,102311.19
2023-04-09T21:37:16.274Z,102301.78
2023-04-09T21:39:43.211Z,102304.56
2023-04-09T21:42:09.677Z,102307.28
2023-04-09T21:44:36.279Z,102305.75
2023-04-09T21:47:07.484Z,102305.88
2023-04-09T21:49:39.019Z,102303.44
2023-04-09T21:52:08.971Z,102305.28
2023-04-09T21:54:36.042Z,102294.09
2023-04-09T21:57:02.766Z,102299.50
2023-04-09T21:59:29.279Z,102304.00
2023-04-09T22:01:55.864Z,102303.19
2023-04-09T22:04:22.358Z,102299.84
2023-04-09T22:06:48.833Z,102302.59
2023-04-09T22:09:15.475Z,102294.88
2023-04-09T22:11:42.532Z,102298.41
2023-04-09T22:14:08.989Z,102289.81
2023-04-09T22:16:35.422Z,102296.84
2023-04-09T22:19:02.333Z,102296.97
2023-04-09T22:21:28.770Z,102304.88
2023-04-09T22:23:56.098Z,102307.63
2023-04-09T22:26:22.722Z,102310.31
2023-04-09T22:28:50.270Z,102305.19
2023-04-09T22:31:16.885Z,102305.28
2023-04-09T22:33:43.356Z,102308.03
2023-04-09T22:36:09.839Z,102305.47
2023-04-09T22:38:36.339Z,102300.34
2023-04-09T22:41:02.950Z,102293.50
2023-04-09T22:43:29.394Z,102297.09
2023-04-09T22:45:57.169Z,102291.13
2023-04-09T22:48:23.705Z,102275.56
2023-04-09T22:50:50.476Z,102284.31
2023-04-09T22:53:20.734Z,102280.03
2023-04-09T22:55:50.970Z,102286.09
2023-04-09T22:58:18.253Z,102277.44
2023-04-09T23:00:44.731Z,102281.72
2023-04-09T23:03:11.347Z,102285.97
2023-04-09T23:05:38.145Z,102272.22
2023-04-09T23:08:05.049Z,102278.19
2023-04-09T23:10:32.162Z,102268.63
2023-04-09T23:12:58.674Z,102265.19
2023-04-09T23:15:25.459Z,102260.91
2023-04-09T23:17:52.298Z,102258.31
2023-04-09T23:20:18.905Z,102264.41
2023-04-09T23:22:49.021Z,102263.53
2023-04-09T23:25:16.388Z,102260.97
2023-04-09T23:27:43.303Z,102259.28
2023-04-09T23:30:10.473Z,102265.44
2023-04-09T23:32:37.190Z,102259.38
2023-04-09T23:35:04.157Z,102255.09
2023-04-09T23:37:30.769Z,102249.06
2023-04-09T23:39:57.265Z,102252.63
2023-04-09T23:42:23.932Z,102249.16
2023-04-09T23:44:50.503Z,102252.72
2023-04-09T23:47:17.405Z,102253.66
2023-04-09T23:49:44.006Z,102253.63
2023-04-09T23:52:10.528Z,102261.44
2023-04-09T23:54:36.990Z,102258.03
2023-04-09T23:57:03.536Z,102251.13
2023-04-09T23:59:33.785Z,102238.19
